KONA/ONA METAR and TAF weather

Enter ICAO airport designator
Station Type Date Time Source
KONA METAR 2019/12/06 13:55 UTC NOAA

KONA 061355Z AUTO 33008G15KT 10SM CLR M02/M06 A3031 RMK AO2


Station Type Date Time Source
KONA Decoded METAR 2019/12/06 13:55 UTC NOAA

Winona, Winona Municipal Airport-Max Conrad Field, MN, United States (KONA) 44-05N 091-42W
Dec 06, 2019 - 08:55 AM EST / 2019.12.06 1355 UTC
Wind: from the NNW (330 degrees) at 9 MPH (8 KT) gusting to 17 MPH (15 KT):0
Visibility: 10 mile(s):0
Sky conditions: clear
Temperature: 28 F (-2 C)
Windchill: 19 F (-7 C):1
Dew Point: 21 F (-6 C)
Relative Humidity: 74%
Pressure (altimeter): 30.31 in. Hg (1026 hPa)
ob: KONA 061355Z AUTO 33008G15KT 10SM CLR M02/M06 A3031 RMK AO2
cycle: 14

Station Type Date Time Source
KONA TAF UTC NOAA

Error!

Example: see airport list